Highland, Illinois
Current Conditions -  °F | °C
As of 3:58 AM on Sunday 21 Dec 2014 (Local Time) from KBLV Reporting Station
Overcast Overcast  
Wind Chill: 31°   Ceiling: 2300
Heat Index: 38°   Visibility: 10mi
Dew Point: 33°   Wind: 9mph
Humidity: 83%   Direction: 140°SE
Pressure: 30.22"   Gusts: NA
Location:  38.74°N, 89.68°W
Report Text: KBLV 210958Z AUTO 14008KT 10SM OVC023 03/00 A3022 RMK AO2 SLP240 T00310004 $
Loading
Personal Weather Stations






























Interactive Weather Map New forecast layout! Learn more

10-Day Weather Forecast

Advertisements
Track Severe Weather on mobile